Flight Track Log - Related Links

Times and Time Zones

All times are in EDT time to prevent confusion due to time zone crossing. See the UPS1189 flight status page for this flight to view local times or setup timezone preferences in your user account.

Time Position Orientation Groundspeed Altitude Reporting Facility
EDT Latitude Longitude Course Direction KTS MPH feet Rate Location/Type
Mon 10:16:59 PM 39.8500 -75.2990 237° Southwest 204 235 1,700  Level FlightAware ADS-B
Mon 10:17:22 PM 39.8350 -75.3260 234° Southwest 250 288 2,500 2,571 Climbing FlightAware ADS-B
Mon 10:17:34 PM 39.8280 -75.3390 235° Southwest 251 289 3,200 4,500 Climbing FlightAware ADS-B
Mon 10:17:42 PM 39.8230 -75.3500 239° Southwest 242 278 4,000 5,294 Climbing FlightAware ADS-B
Mon 10:17:51 PM 39.8200 -75.3630 253° West 241 277 4,700 4,500 Climbing FlightAware ADS-B
Mon 10:18:02 PM 39.8180 -75.3790 261° West 241 277 5,500 4,258 Climbing FlightAware ADS-B
Mon 10:18:22 PM 39.8190 -75.4080 273° West 245 282 6,900 3,750 Climbing FlightAware ADS-B
Mon 10:18:42 PM 39.8220 -75.4390 277° West 261 300 8,000 3,474 Climbing FlightAware ADS-B
Mon 10:19:00 PM 39.8250 -75.4670 278° West 268 308 9,100 2,919 Climbing FlightAware ADS-B
Mon 10:19:19 PM 39.8300 -75.4990 282° West 290 334 9,800 1,350 Climbing FlightAware ADS-B
Mon 10:19:40 PM 39.8350 -75.5350 280° West 314 361 10,000 273 Climbing FlightAware ADS-B
Mon 10:20:03 PM 39.8400 -75.5770 279° West 327 376 10,000 -140 Level FlightAware ADS-B
Mon 10:20:23 PM 39.8460 -75.6180 281° West 344 396 9,900 1,111 Descending FlightAware ADS-B
Mon 10:20:57 PM 39.8540 -75.6890 278° West 345 397 11,000 2,789 Climbing FlightAware ADS-B
Mon 10:21:34 PM 39.8590 -75.7660 275° West 354 407 13,200 3,452 Climbing FlightAware ADS-B
Mon 10:22:10 PM 39.8630 -75.8450 274° West 367 422 15,200 3,672 Climbing FlightAware ADS-B
Mon 10:22:41 PM 39.8660 -75.9120 273° West 359 413 17,300 3,474 Climbing FlightAware ADS-B
Mon 10:23:07 PM 39.8682 -75.9517 274° West 365 420 18,500 2,769 Climbing FlightAware ADS-B (KSYR)
Mon 10:23:46 PM 39.8718 -76.0554 273° West 381 438 20,300 2,550 Climbing FlightAware ADS-B (KSYR)
Mon 10:24:27 PM 39.8770 -76.1530 274° West 397 457 21,900 2,492 Climbing FlightAware ADS-B
Mon 10:24:51 PM 39.8795 -76.2042 274° West 403 464 23,000 2,400 Climbing FlightAware ADS-B (KSYR)
Mon 10:25:32 PM 39.8855 -76.3066 274° West 416 479 24,500 2,154 Climbing FlightAware ADS-B (KSYR)
Mon 10:26:09 PM 39.8906 -76.4037 274° West 425 489 25,800 2,060 Climbing FlightAware ADS-B (KSYR)
Mon 10:26:39 PM 39.8942 -76.4766 274° West 432 497 26,800 2,605 Climbing FlightAware ADS-B (KSYR)
Mon 10:27:25 PM 39.9001 -76.5981 274° West 421 484 29,100 2,519 Climbing FlightAware ADS-B (KSYR)
Mon 10:28:00 PM 39.9040 -76.6870 273° West 425 489 30,200 1,857 Climbing FlightAware ADS-B
Mon 10:28:07 PM 39.9049 -76.7043 274° West 427 491 30,400 1,814 Climbing FlightAware ADS-B (KSYR)
Mon 10:28:43 PM 39.9088 -76.7908 273° West 430 495 31,500 1,853 Climbing FlightAware ADS-B (KSYR)
Mon 10:29:15 PM 39.9126 -76.8774 273° West 434 499 32,500 2,041 Climbing FlightAware ADS-B (KSYR)
Mon 10:30:20 PM 39.9200 -77.0480 273° West 422 486 34,800 2,148 Climbing FlightAware ADS-B
Mon 10:30:36 PM 39.9207 -77.0651 273° West 422 486 35,400 2,118 Climbing FlightAware ADS-B (KSYR)
Mon 10:31:28 PM 39.9270 -77.2150 273° West 402 463 37,200 1,784 Climbing FlightAware ADS-B
Mon 10:31:50 PM 39.9292 -77.2691 273° West 403 464 37,600 716 Climbing FlightAware ADS-B (KSYR)
Mon 10:32:35 PM 39.9330 -77.3800 273° West 412 474 38,000 289 Climbing FlightAware ADS-B
Mon 10:33:13 PM 39.9370 -77.4720 273° West 404 465 38,000  Level FlightAware ADS-B
Mon 10:33:43 PM 39.9400 -77.5350 274° West 403 464 38,000  Level FlightAware ADS-B
Mon 10:34:20 PM 39.9430 -77.6280 272° West 405 466 38,000  Level FlightAware ADS-B
Mon 10:34:55 PM 39.9460 -77.7130 273° West 402 463 38,000  Level FlightAware ADS-B
Mon 10:35:34 PM 39.9490 -77.7960 273° West 400 460 38,000  Level FlightAware ADS-B
Mon 10:36:04 PM 39.9520 -77.8850 273° West 400 460 38,000  Level FlightAware ADS-B
Mon 10:36:50 PM 39.9560 -77.9950 273° West 402 463 38,000  Level FlightAware ADS-B
Mon 10:37:26 PM 39.9590 -78.0810 273° West 402 463 38,000  Level FlightAware ADS-B
Mon 10:38:02 PM 39.9620 -78.1710 273° West 401 461 38,000  Level FlightAware ADS-B
Mon 10:38:34 PM 39.9640 -78.2460 272° West 402 463 38,000 88 Level FlightAware ADS-B
Mon 10:39:10 PM 39.9670 -78.3350 273° West 399 459 38,100  Climbing FlightAware ADS-B
Mon 10:39:46 PM 39.9700 -78.4210 273° West 397 457 38,000 -86 Descending FlightAware ADS-B
Mon 10:40:20 PM 39.9720 -78.4970 272° West 396 456 38,000  Level FlightAware ADS-B
Mon 10:40:58 PM 39.9750 -78.5910 272° West 395 455 38,000  Level FlightAware ADS-B
Mon 10:41:32 PM 39.9770 -78.6710 272° West 394 453 38,000  Level FlightAware ADS-B
Mon 10:42:04 PM 39.9790 -78.7470 272° West 394 453 38,000  Level FlightAware ADS-B
Mon 10:42:40 PM 39.9810 -78.8340 272° West 395 455 38,000  Level FlightAware ADS-B
Mon 10:43:16 PM 39.9840 -78.9180 273° West 399 459 38,000  Level FlightAware ADS-B
Mon 10:43:48 PM 39.9860 -78.9960 272° West 403 464 38,000 86 Level FlightAware ADS-B
Mon 10:44:26 PM 39.9880 -79.0890 272° West 406 467 38,100 81 Climbing FlightAware ADS-B
Mon 10:45:02 PM 39.9900 -79.1770 272° West 408 470 38,100  Level FlightAware ADS-B
Mon 10:45:34 PM 39.9920 -79.2570 272° West 407 468 38,100 -88 Level FlightAware ADS-B
Mon 10:46:10 PM 39.9940 -79.3420 272° West 407 468 38,000 -83 Descending FlightAware ADS-B
Mon 10:46:46 PM 39.9960 -79.4330 272° West 409 471 38,000  Level FlightAware ADS-B
Mon 10:47:18 PM 39.9970 -79.5100 271° West 409 471 38,000  Level FlightAware ADS-B
Mon 10:47:53 PM 39.9990 -79.5940 272° West 408 470 38,000 83 Level FlightAware ADS-B
Mon 10:48:30 PM 40.0010 -79.6870 272° West 407 468 38,100 82 Climbing FlightAware ADS-B
Mon 10:49:06 PM 40.0060 -79.7760 274° West 407 468 38,100 -83 Level FlightAware ADS-B
Mon 10:49:42 PM 40.0110 -79.8630 274° West 406 467 38,000 -83 Descending FlightAware ADS-B
Mon 10:50:18 PM 40.0170 -79.9510 275° West 405 466 38,000  Level FlightAware ADS-B
Mon 10:50:50 PM 40.0220 -80.0290 275° West 404 465 38,000  Level FlightAware ADS-B
Mon 10:51:26 PM 40.0270 -80.1130 274° West 403 464 38,000  Level FlightAware ADS-B
Mon 10:52:02 PM 40.0320 -80.1990 274° West 404 465 38,000  Level FlightAware ADS-B
Mon 10:52:32 PM 40.0360 -80.2740 274° West 405 466 38,000  Level FlightAware ADS-B
Mon 10:53:09 PM 40.0420 -80.3650 275° West 408 470 38,000  Level FlightAware ADS-B
Mon 10:53:45 PM 40.0470 -80.4550 274° West 412 474 38,000 83 Level FlightAware ADS-B
Mon 10:54:21 PM 40.0520 -80.5420 274° West 416 479 38,100 88 Climbing FlightAware ADS-B
Mon 10:54:53 PM 40.0560 -80.6210 274° West 419 482 38,100  Level FlightAware ADS-B
Mon 10:55:31 PM 40.0620 -80.7170 275° West 421 484 38,100  Level FlightAware ADS-B
Mon 10:56:07 PM 40.0670 -80.8100 274° West 421 484 38,100 -83 Level FlightAware ADS-B
Mon 10:56:43 PM 40.0720 -80.9020 274° West 418 481 38,000 -88 Descending FlightAware ADS-B
Mon 10:57:15 PM 40.0760 -80.9790 274° West 416 479 38,000  Level FlightAware ADS-B
Mon 10:57:51 PM 40.0810 -81.0700 274° West 413 475 38,000  Level FlightAware ADS-B
Mon 10:58:23 PM 40.0850 -81.1500 274° West 414 476 38,000  Level FlightAware ADS-B
Mon 10:58:59 PM 40.0900 -81.2370 274° West 413 475 38,000  Level FlightAware ADS-B
Mon 10:59:35 PM 40.0950 -81.3290 274° West 415 478 38,000  Level FlightAware ADS-B
Mon 11:00:13 PM 40.0990 -81.4250 273° West 418 481 38,000  Level FlightAware ADS-B
Mon 11:00:45 PM 40.1030 -81.5060 274° West 419 482 38,000  Level FlightAware ADS-B
Mon 11:01:21 PM 40.1080 -81.5970 274° West 421 484 38,000  Level FlightAware ADS-B
Mon 11:01:58 PM 40.1110 -81.6910 272° West 422 486 38,000  Level FlightAware ADS-B
Mon 11:02:27 PM 40.1020 -81.7640 261° West 424 488 38,000  Level FlightAware ADS-B
Mon 11:03:06 PM 40.0860 -81.8610 258° West 426 490 38,000  Level FlightAware ADS-B
Mon 11:03:38 PM 40.0740 -81.9400 259° West 428 493 38,000  Level FlightAware ADS-B
Mon 11:04:18 PM 40.0570 -82.0430 258° West 431 496 38,000 83 Level FlightAware ADS-B
Mon 11:04:50 PM 40.0440 -82.1250 258° West 432 497 38,100  Climbing FlightAware ADS-B
Mon 11:05:25 PM 40.0290 -82.2140 258° West 433 498 38,000 -82 Descending FlightAware ADS-B
Mon 11:06:03 PM 40.0140 -82.3100 258° West 434 499 38,000  Level FlightAware ADS-B
Mon 11:06:35 PM 40.0000 -82.3930 258° West 435 501 38,000 -545 Level FlightAware ADS-B
Mon 11:07:09 PM 39.9860 -82.4780 258° West 435 501 37,400 -1,029 Descending FlightAware ADS-B
Mon 11:07:45 PM 39.9670 -82.5720 255° West 444 511 36,800 -923 Descending FlightAware ADS-B
Mon 11:08:01 PM 39.9510 -82.6100 241° Southwest 448 516 36,600 -842 Descending FlightAware ADS-B
Mon 11:08:42 PM 39.9080 -82.6970 237° Southwest 439 505 36,000 -1,013 Descending FlightAware ADS-B
Mon 11:09:18 PM 39.8670 -82.7830 238° Southwest 444 511 35,300 -1,114 Descending FlightAware ADS-B
Mon 11:09:52 PM 39.8300 -82.8600 238° Southwest 450 518 34,700 -957 Descending FlightAware ADS-B
Mon 11:10:27 PM 39.7910 -82.9390 237° Southwest 450 518 34,200 -882 Descending FlightAware ADS-B
Mon 11:11:00 PM 39.7540 -83.0140 237° Southwest 451 519 33,700 -1,013 Descending FlightAware ADS-B
Mon 11:11:44 PM 39.7040 -83.1140 237° Southwest 455 524 32,900 -1,050 Descending FlightAware ADS-B
Mon 11:12:20 PM 39.6630 -83.1960 237° Southwest 457 526 32,300 -1,304 Descending FlightAware ADS-B
Mon 11:12:53 PM 39.6260 -83.2720 238° Southwest 458 527 31,400 -1,781 Descending FlightAware ADS-B
Mon 11:13:24 PM 39.5890 -83.3450 237° Southwest 460 529 30,400 -1,254 Descending FlightAware ADS-B
Mon 11:14:00 PM 39.5470 -83.4280 237° Southwest 460 529 30,000 -320 Descending FlightAware ADS-B
Mon 11:14:39 PM 39.5010 -83.5200 237° Southwest 463 533 30,000  Level FlightAware ADS-B
Mon 11:15:21 PM 39.4600 -83.6000 236° Southwest 463 533 30,000  Level FlightAware ADS-B
Mon 11:15:56 PM 39.4120 -83.6960 237° Southwest 464 534 30,000  Level FlightAware ADS-B
Mon 11:16:31 PM 39.3690 -83.7790 236° Southwest 464 534 30,000  Level FlightAware ADS-B
Mon 11:17:13 PM 39.3240 -83.8670 237° Southwest 463 533 30,000  Level FlightAware ADS-B
Mon 11:17:48 PM 39.2780 -83.9580 237° Southwest 464 534 30,000  Level FlightAware ADS-B
Mon 11:18:39 PM 39.2230 -84.0650 236° Southwest 464 534 30,000  Level FlightAware ADS-B
Mon 11:19:15 PM 39.1860 -84.1350 236° Southwest 464 534 30,000  Level FlightAware ADS-B
Mon 11:19:52 PM 39.1490 -84.2070 236° Southwest 464 534 30,000  Level FlightAware ADS-B
Mon 11:20:29 PM 39.1110 -84.2800 236° Southwest 464 534 30,000 -5,167 Level FlightAware ADS-B
Mon 11:21:04 PM 39.0690 -84.3640 237° Southwest 431 496 23,800 -5,096 Descending FlightAware ADS-B
Mon 11:21:42 PM 39.0330 -84.4330 236° Southwest 431 496 23,800 -2,640 Level FlightAware ADS-B
Mon 11:22:19 PM 38.9720 -84.5520 237° Southwest 413 475 20,500 -2,676 Descending FlightAware ADS-B
Mon 11:22:56 PM 38.9370 -84.6150 234° Southwest 413 475 20,500  Level FlightAware ADS-B
Mon 11:23:30 PM 38.9060 -84.6740 236° Southwest 413 475 20,500  Level FlightAware ADS-B
Mon 11:24:06 PM 38.8720 -84.7350 234° Southwest 413 475 20,500  Level FlightAware ADS-B
Mon 11:24:43 PM 38.8380 -84.7980 235° Southwest 413 475 20,500  Level FlightAware ADS-B
Mon 11:25:19 PM 38.8040 -84.8600 235° Southwest 413 475 20,500  Level FlightAware ADS-B
Mon 11:25:55 PM 38.7710 -84.9210 235° Southwest 413 475 20,500 -2,825 Level FlightAware ADS-B
Mon 11:28:28 PM 38.5350 -85.1680 219° Southwest 334 384 11,600 -3,016 Descending FlightAware ADS-B
Mon 11:29:00 PM 38.4970 -85.2040 217° Southwest 314 361 11,200 -977 Descending FlightAware ADS-B
Mon 11:29:54 PM 38.4370 -85.2610 217° Southwest 294 338 10,200 -1,286 Descending FlightAware ADS-B
Mon 11:30:10 PM 38.4200 -85.2780 218° Southwest 297 342 9,700 -706 Descending FlightAware ADS-B
Mon 11:30:45 PM 38.3900 -85.3070 217° Southwest 297 342 9,600 -1,412 Descending FlightAware ADS-B
Mon 11:31:18 PM 38.3440 -85.3500 216° Southwest 289 333 8,100 -2,204 Descending FlightAware ADS-B
Mon 11:31:34 PM 38.3290 -85.3640 216° Southwest 286 329 7,800 -1,667 Descending FlightAware ADS-B
Mon 11:31:54 PM 38.3070 -85.3850 217° Southwest 290 334 7,100 -1,579 Descending FlightAware ADS-B
Mon 11:32:12 PM 38.2880 -85.4040 218° Southwest 296 341 6,800 -682 Descending FlightAware ADS-B
Mon 11:32:38 PM 38.2580 -85.4320 216° Southwest 295 339 6,600 -789 Descending FlightAware ADS-B
Mon 11:32:50 PM 38.2450 -85.4450 218° Southwest 295 339 6,300 -1,500 Descending FlightAware ADS-B
Mon 11:32:58 PM 38.2390 -85.4560 235° Southwest 294 338 6,100 -1,500 Descending FlightAware ADS-B
Mon 11:33:06 PM 38.2340 -85.4690 244° Southwest 290 334 5,900 -621 Descending FlightAware ADS-B
Mon 11:33:27 PM 38.2270 -85.5020 255° West 284 327 5,800 -146 Descending FlightAware ADS-B
Mon 11:33:47 PM 38.2190 -85.5320 251° West 280 322 5,800  Level FlightAware ADS-B
Mon 11:34:06 PM 38.2120 -85.5640 254° West 282 325 5,800  Level FlightAware ADS-B
Mon 11:34:28 PM 38.2040 -85.6000 254° West 284 327 5,800  Level FlightAware ADS-B
Mon 11:34:50 PM 38.1970 -85.6350 256° West 285 328 5,800  Level FlightAware ADS-B
Mon 11:35:10 PM 38.1900 -85.6680 255° West 285 328 5,800  Level FlightAware ADS-B
Mon 11:35:34 PM 38.1810 -85.7060 253° West 285 328 5,800  Level FlightAware ADS-B
Mon 11:35:54 PM 38.1740 -85.7390 255° West 285 328 5,800  Level FlightAware ADS-B
Mon 11:36:14 PM 38.1670 -85.7710 254° West 286 329 5,800  Level FlightAware ADS-B
Mon 11:36:34 PM 38.1610 -85.8030 257° West 277 319 5,800  Level FlightAware ADS-B
Mon 11:36:50 PM 38.1550 -85.8260 252° West 257 296 5,800  Level FlightAware ADS-B
Mon 11:36:58 PM 38.1500 -85.8370 240° Southwest 248 285 5,800  Level FlightAware ADS-B
Mon 11:37:02 PM 38.1470 -85.8410 226° Southwest 249 287 5,800  Level FlightAware ADS-B
Mon 11:37:10 PM 38.1400 -85.8480 218° Southwest 249 287 5,800  Level FlightAware ADS-B
Mon 11:37:18 PM 38.1310 -85.8510 195° South 248 285 5,800  Level FlightAware ADS-B
Mon 11:37:24 PM 38.1240 -85.8520 186° South 245 282 5,800  Level FlightAware ADS-B
Mon 11:37:46 PM 38.1000 -85.8490 174° South 241 277 5,800 -353 Level FlightAware ADS-B
Mon 11:37:58 PM 38.0870 -85.8440 163° South 236 272 5,600 -1,333 Descending FlightAware ADS-B
Mon 11:38:22 PM 38.0630 -85.8290 154° Southeast 237 273 5,000 -1,364 Descending FlightAware ADS-B
Mon 11:38:42 PM 38.0440 -85.8160 152° Southeast 233 268 4,600 -1,200 Descending FlightAware ADS-B
Mon 11:39:02 PM 38.0250 -85.8040 154° Southeast 232 267 4,200 -1,125 Descending FlightAware ADS-B
Mon 11:39:14 PM 38.0130 -85.7960 152° Southeast 233 268 4,000 -667 Descending FlightAware ADS-B
Mon 11:39:38 PM 37.9910 -85.7810 152° Southeast 225 259 3,800 -643 Descending FlightAware ADS-B
Mon 11:39:42 PM 37.9870 -85.7770 142° Southeast 223 257 3,700 -1,000 Descending FlightAware ADS-B
Mon 11:39:50 PM 37.9830 -85.7700 126° Southeast 215 247 3,600 -750 Descending FlightAware ADS-B
Mon 11:39:58 PM 37.9810 -85.7600 104° East 207 238 3,500 -1,125 Descending FlightAware ADS-B
Mon 11:40:06 PM 37.9810 -85.7500 90° East 197 227 3,300 -1,000 Descending FlightAware ADS-B
Mon 11:40:10 PM 37.9820 -85.7460 72° East 192 221 3,300 -500 Level FlightAware ADS-B
Mon 11:40:18 PM 37.9860 -85.7390 54° Northeast 182 209 3,200 -857 Descending FlightAware ADS-B
Mon 11:40:24 PM 37.9890 -85.7340 53° Northeast 175 201 3,100 -1,286 Descending FlightAware ADS-B
Mon 11:40:32 PM 37.9940 -85.7290 38° Northeast 171 197 2,900 -1,125 Descending FlightAware ADS-B
Mon 11:40:40 PM 38.0000 -85.7270 15° North 164 189 2,800 -214 Descending FlightAware ADS-B
Mon 11:41:00 PM 38.0130 -85.7210 20° North 154 177 2,800  Level FlightAware ADS-B
Mon 11:41:18 PM 38.0250 -85.7170 15° North 152 175 2,800 -273 Level FlightAware ADS-B
Mon 11:41:44 PM 38.0430 -85.7090 19° North 152 175 2,600 -474 Descending FlightAware ADS-B
Mon 11:41:56 PM 38.0520 -85.7070 10° North 151 174 2,500 -857 Descending FlightAware ADS-B
Mon 11:42:26 PM 38.0720 -85.7110 351° North 153 176 2,000 -960 Descending FlightAware ADS-B
Mon 11:42:46 PM 38.0860 -85.7160 344° North 151 174 1,700 -750 Descending FlightAware ADS-B
Mon 11:43:06 PM 38.0990 -85.7200 346° North 150 173 1,500 -682 Descending FlightAware ADS-B
Mon 11:43:30 PM 38.1150 -85.7250 346° North 149 171 1,200 -837 Descending FlightAware ADS-B
Mon 11:43:49 PM 38.1270 -85.7290 345° North 148 170 900 -833 Descending FlightAware ADS-B
Mon 11:44:06 PM 38.1390 -85.7330 345° North 151 174 700 -878 Descending FlightAware ADS-B
Mon 11:44:30 PM 38.1560 -85.7390 344° North 157 181 300 -471 Descending FlightAware ADS-B
Mon 11:44:57 PM 38.1720 -85.7440 346° North 157 181 300  Level FlightAware ADS-B

Login

Don't have an account? Register now (free) for customized features, flight alerts, and more!